createdAt,value
2023-01-09T00:00:20.836Z,990.2
2023-01-09T00:01:20.748Z,990.1
2023-01-09T00:02:20.931Z,990.1
2023-01-09T00:03:20.755Z,990.1
2023-01-09T00:04:20.744Z,990.1
2023-01-09T00:05:20.782Z,990.1
2023-01-09T00:06:20.772Z,990.0
2023-01-09T00:07:20.790Z,990.1
2023-01-09T00:08:20.803Z,990.0
2023-01-09T00:09:20.809Z,990.1
2023-01-09T00:10:20.828Z,990.0
2023-01-09T00:11:20.842Z,989.9
2023-01-09T00:12:20.847Z,989.9
2023-01-09T00:13:20.872Z,990.0
2023-01-09T00:14:20.894Z,989.9
2023-01-09T00:15:20.913Z,990.0
2023-01-09T00:16:21.037Z,989.9
2023-01-09T00:17:20.899Z,990.0
2023-01-09T00:18:20.910Z,989.8
2023-01-09T00:19:20.935Z,989.9
2023-01-09T00:20:20.964Z,989.8
2023-01-09T00:21:20.952Z,989.8
2023-01-09T00:22:20.954Z,989.8
2023-01-09T00:23:20.987Z,989.8
2023-01-09T00:24:20.982Z,989.7
2023-01-09T00:25:21.004Z,989.8
2023-01-09T00:26:21.013Z,989.7
2023-01-09T00:27:21.029Z,989.8
2023-01-09T00:28:21.030Z,989.7
2023-01-09T00:29:21.048Z,989.7
2023-01-09T00:30:21.066Z,989.6
2023-01-09T00:31:21.075Z,989.7
2023-01-09T00:32:21.095Z,989.6
2023-01-09T00:33:21.089Z,989.6
2023-01-09T00:34:21.102Z,989.7
2023-01-09T00:35:21.141Z,989.6
2023-01-09T00:36:21.149Z,989.6
2023-01-09T00:37:21.183Z,989.6
2023-01-09T00:38:21.167Z,989.6
2023-01-09T00:39:21.158Z,989.6
2023-01-09T00:40:21.175Z,989.6
2023-01-09T00:41:21.183Z,989.7
2023-01-09T00:42:21.199Z,989.6
2023-01-09T00:43:21.211Z,989.6
2023-01-09T00:44:21.227Z,989.6
2023-01-09T00:45:21.240Z,989.6
2023-01-09T00:46:21.353Z,989.7
2023-01-09T00:47:21.257Z,989.7
2023-01-09T00:48:21.265Z,989.7
2023-01-09T00:49:21.273Z,989.6
2023-01-09T00:50:21.299Z,989.7
2023-01-09T00:51:21.317Z,989.6
2023-01-09T00:52:21.322Z,989.5
2023-01-09T00:53:21.331Z,989.5
2023-01-09T00:54:21.345Z,989.5
2023-01-09T00:55:21.373Z,989.5
2023-01-09T00:56:21.382Z,989.6
2023-01-09T00:57:21.402Z,989.5
2023-01-09T00:58:21.418Z,989.5
2023-01-09T00:59:21.437Z,989.5
2023-01-09T01:00:21.441Z,989.5
2023-01-09T01:01:21.656Z,989.5
2023-01-09T01:02:21.803Z,989.5
2023-01-09T01:03:21.485Z,989.5
2023-01-09T01:04:21.501Z,989.4
2023-01-09T01:05:21.508Z,989.4
2023-01-09T01:06:21.514Z,989.5
2023-01-09T01:07:21.516Z,989.5
2023-01-09T01:08:21.525Z,989.5
2023-01-09T01:09:21.536Z,989.5
2023-01-09T01:10:21.546Z,989.5
2023-01-09T01:11:21.552Z,989.5
2023-01-09T01:12:21.575Z,989.5
2023-01-09T01:13:21.576Z,989.5
2023-01-09T01:14:21.582Z,989.5
2023-01-09T01:15:21.608Z,989.5
2023-01-09T01:16:21.629Z,989.5
2023-01-09T01:17:21.636Z,989.5
2023-01-09T01:18:21.631Z,989.5
2023-01-09T01:19:21.646Z,989.5
2023-01-09T01:20:21.668Z,989.4
2023-01-09T01:21:21.682Z,989.5
2023-01-09T01:22:21.673Z,989.5
2023-01-09T01:23:21.697Z,989.4
2023-01-09T01:24:21.705Z,989.5
2023-01-09T01:25:21.711Z,989.3
2023-01-09T01:26:21.748Z,989.5
2023-01-09T01:27:21.758Z,989.4
2023-01-09T01:28:21.745Z,989.4
2023-01-09T01:29:21.757Z,989.4
2023-01-09T01:30:21.770Z,989.4
2023-01-09T01:31:21.772Z,989.3
2023-01-09T01:32:21.785Z,989.4
2023-01-09T01:33:21.787Z,989.4
2023-01-09T01:34:21.820Z,989.3
2023-01-09T01:35:21.828Z,989.3
2023-01-09T01:36:21.829Z,989.3
2023-01-09T01:37:21.872Z,989.3
2023-01-09T01:38:21.867Z,989.3
2023-01-09T01:39:21.864Z,989.3
2023-01-09T01:40:21.880Z,989.2
2023-01-09T01:41:21.887Z,989.3
2023-01-09T01:42:21.924Z,989.3
2023-01-09T01:43:21.908Z,989.3
2023-01-09T02:01:22.674Z,989.2
2023-01-09T02:02:22.577Z,989.1
2023-01-09T02:03:22.192Z,989.2
2023-01-09T02:04:22.196Z,989.1
2023-01-09T02:05:22.200Z,989.1
2023-01-09T02:06:22.215Z,989.1
2023-01-09T02:07:22.211Z,989.0
2023-01-09T02:08:22.235Z,989.1
2023-01-09T02:09:22.238Z,989.0
2023-01-09T02:10:22.258Z,989.1
2023-01-09T02:11:22.272Z,989.0
2023-01-09T02:12:22.293Z,989.0
2023-01-09T02:13:22.304Z,989.0
2023-01-09T02:14:22.322Z,989.1
2023-01-09T02:15:22.345Z,989.0
2023-01-09T02:16:22.500Z,988.9
2023-01-09T02:17:22.371Z,989.0
2023-01-09T02:18:22.387Z,989.1
2023-01-09T02:19:22.404Z,989.0
2023-01-09T02:20:22.414Z,989.0
2023-01-09T02:21:22.427Z,988.9
2023-01-09T02:22:22.415Z,988.9
2023-01-09T02:23:22.439Z,988.9
2023-01-09T02:24:22.430Z,989.0
2023-01-09T02:25:22.478Z,988.9
2023-01-09T02:26:22.457Z,988.9
2023-01-09T02:27:22.488Z,989.0
2023-01-09T02:28:22.495Z,988.8
2023-01-09T02:29:22.520Z,988.8
2023-01-09T02:30:22.518Z,988.8
2023-01-09T02:31:22.616Z,988.8
2023-01-09T02:32:22.546Z,988.8
2023-01-09T02:33:22.568Z,988.7
2023-01-09T02:34:22.672Z,988.7
2023-01-09T02:35:22.580Z,988.8
2023-01-09T02:36:22.588Z,988.7
2023-01-09T02:37:22.621Z,988.7
2023-01-09T02:38:22.622Z,988.7
2023-01-09T02:39:22.632Z,988.7
2023-01-09T02:40:22.627Z,988.7
2023-01-09T02:41:22.649Z,988.6
2023-01-09T02:42:22.683Z,988.6
2023-01-09T02:43:22.668Z,988.7
2023-01-09T02:44:22.676Z,988.6
2023-01-09T02:45:22.675Z,988.6
2023-01-09T02:46:22.683Z,988.6
2023-01-09T02:47:22.697Z,988.6
2023-01-09T02:48:22.703Z,988.6
2023-01-09T02:49:22.704Z,988.5
2023-01-09T02:50:22.743Z,988.5
2023-01-09T02:51:22.723Z,988.6
2023-01-09T02:52:22.764Z,988.6
2023-01-09T02:53:23.199Z,988.6
2023-01-09T02:54:22.898Z,988.6
2023-01-09T02:55:22.981Z,988.6
2023-01-09T02:56:23.525Z,988.7
2023-01-09T02:57:22.964Z,988.6
2023-01-09T02:58:23.352Z,988.6
2023-01-09T02:59:23.361Z,988.6
2023-01-09T03:00:22.942Z,988.7
2023-01-09T03:01:23.960Z,988.6
2023-01-09T03:02:23.372Z,988.6
2023-01-09T03:03:23.697Z,988.6
2023-01-09T03:04:23.677Z,988.5
2023-01-09T03:05:22.997Z,988.6
2023-01-09T03:06:23.003Z,988.5
2023-01-09T03:07:23.467Z,988.6
2023-01-09T03:08:23.022Z,988.6
2023-01-09T03:09:23.454Z,988.5
2023-01-09T03:10:23.055Z,988.6
2023-01-09T03:11:23.067Z,988.6
2023-01-09T03:12:23.173Z,988.6
2023-01-09T03:13:23.126Z,988.6
2023-01-09T03:14:23.109Z,988.5
2023-01-09T03:15:23.186Z,988.6
2023-01-09T03:16:23.236Z,988.6
2023-01-09T03:17:23.173Z,988.6
2023-01-09T03:18:23.222Z,988.7
2023-01-09T03:19:23.193Z,988.6
2023-01-09T03:20:23.210Z,988.7
2023-01-09T03:21:23.643Z,988.6
2023-01-09T03:22:23.217Z,988.5
2023-01-09T03:23:23.251Z,988.6
2023-01-09T03:24:23.232Z,988.6
2023-01-09T03:25:23.271Z,988.6
2023-01-09T03:26:23.683Z,988.6
2023-01-09T03:27:23.216Z,988.6
2023-01-09T03:28:23.207Z,988.5
2023-01-09T03:29:23.223Z,988.5
2023-01-09T03:30:23.238Z,988.5
2023-01-09T03:31:23.323Z,988.5
2023-01-09T03:32:23.257Z,988.5
2023-01-09T03:33:23.284Z,988.5
2023-01-09T03:34:23.283Z,988.5
2023-01-09T03:35:23.306Z,988.5
2023-01-09T03:36:23.314Z,988.5
2023-01-09T03:37:23.330Z,988.5
2023-01-09T03:38:23.335Z,988.5
2023-01-09T03:39:23.346Z,988.6
2023-01-09T03:40:23.362Z,988.6
2023-01-09T03:41:23.394Z,988.5
2023-01-09T03:42:23.380Z,988.6
2023-01-09T03:43:23.397Z,988.6
2023-01-09T03:44:23.404Z,988.6
2023-01-09T03:45:23.452Z,988.6
2023-01-09T03:46:23.428Z,988.6
2023-01-09T03:47:23.459Z,988.6
2023-01-09T03:48:23.454Z,988.6
2023-01-09T03:49:23.470Z,988.6
2023-01-09T03:50:23.473Z,988.5
2023-01-09T03:51:23.475Z,988.6
2023-01-09T03:52:23.490Z,988.5
2023-01-09T03:53:23.506Z,988.6
2023-01-09T03:54:23.508Z,988.5
2023-01-09T03:55:23.529Z,988.6
2023-01-09T03:56:23.548Z,988.5
2023-01-09T03:57:23.555Z,988.5
2023-01-09T03:58:23.565Z,988.5
2023-01-09T03:59:23.577Z,988.5
2023-01-09T04:00:23.624Z,988.6
2023-01-09T04:01:23.978Z,988.5
2023-01-09T04:02:23.645Z,988.5
2023-01-09T04:03:23.633Z,988.5
2023-01-09T04:04:23.660Z,988.5
2023-01-09T04:05:23.676Z,988.5
2023-01-09T04:06:23.670Z,988.5
2023-01-09T04:07:23.697Z,988.5
2023-01-09T04:08:23.736Z,988.5
2023-01-09T04:09:23.725Z,988.5
2023-01-09T04:10:23.730Z,988.5
2023-01-09T04:11:23.749Z,988.4
2023-01-09T04:12:23.781Z,988.4
2023-01-09T04:13:23.801Z,988.4
2023-01-09T04:14:23.788Z,988.3
2023-01-09T04:15:23.821Z,988.4
2023-01-09T04:16:23.940Z,988.4
2023-01-09T04:17:23.854Z,988.4
2023-01-09T04:18:23.873Z,988.4
2023-01-09T04:19:23.889Z,988.4
2023-01-09T04:20:23.906Z,988.3
2023-01-09T04:21:23.920Z,988.3
2023-01-09T04:22:23.943Z,988.4
2023-01-09T04:23:23.976Z,988.3
2023-01-09T04:24:23.983Z,988.3
2023-01-09T04:25:24.012Z,988.3
2023-01-09T04:26:24.016Z,988.2
2023-01-09T04:27:24.041Z,988.3
2023-01-09T04:28:24.044Z,988.3
2023-01-09T04:29:24.059Z,988.3
2023-01-09T04:30:24.077Z,988.2
2023-01-09T04:31:24.177Z,988.2
2023-01-09T04:32:24.185Z,988.2
2023-01-09T04:33:24.131Z,988.2
2023-01-09T04:34:24.184Z,988.2
2023-01-09T04:35:24.171Z,988.3
2023-01-09T04:36:24.206Z,988.3
2023-01-09T04:37:24.211Z,988.2
2023-01-09T04:38:24.223Z,988.1
2023-01-09T04:39:24.226Z,988.2
2023-01-09T04:40:24.253Z,988.2
2023-01-09T04:41:24.273Z,988.2
2023-01-09T04:42:24.273Z,988.2
2023-01-09T04:43:24.276Z,988.2
2023-01-09T04:44:24.308Z,988.2
2023-01-09T04:45:24.333Z,988.2
2023-01-09T04:46:24.331Z,988.2
2023-01-09T04:47:24.351Z,988.2
2023-01-09T04:48:24.394Z,988.3
2023-01-09T04:49:24.372Z,988.2
2023-01-09T04:50:24.396Z,988.2
2023-01-09T04:51:24.372Z,988.2
2023-01-09T04:52:24.375Z,988.2
2023-01-09T04:53:24.373Z,988.2
2023-01-09T04:54:24.389Z,988.2
2023-01-09T04:55:24.421Z,988.2
2023-01-09T04:56:24.420Z,988.2
2023-01-09T04:57:24.445Z,988.2
2023-01-09T04:58:24.409Z,988.2
2023-01-09T04:59:24.411Z,988.3
2023-01-09T05:00:24.422Z,988.2
2023-01-09T05:01:24.691Z,988.2
2023-01-09T05:02:24.469Z,988.2
2023-01-09T05:03:24.461Z,988.2
2023-01-09T05:04:24.604Z,988.2
2023-01-09T05:05:24.461Z,988.2
2023-01-09T05:06:24.463Z,988.1
2023-01-09T05:07:24.467Z,988.2
2023-01-09T05:08:24.469Z,988.2
2023-01-09T05:09:24.476Z,988.2
2023-01-09T05:10:24.488Z,988.2
2023-01-09T05:11:24.490Z,988.2
2023-01-09T05:12:24.496Z,988.3
2023-01-09T05:13:24.503Z,988.2
2023-01-09T05:14:24.517Z,988.2
2023-01-09T05:15:24.515Z,988.2
2023-01-09T05:16:24.575Z,988.2
2023-01-09T05:17:24.542Z,988.2
2023-01-09T05:18:24.541Z,988.2
2023-01-09T05:19:24.551Z,988.2
2023-01-09T05:20:24.543Z,988.2
2023-01-09T05:21:24.610Z,988.2
2023-01-09T05:22:24.559Z,988.1
2023-01-09T05:23:24.558Z,988.2
2023-01-09T05:24:24.584Z,988.2
2023-01-09T05:25:24.575Z,988.2
2023-01-09T05:26:24.610Z,988.1
2023-01-09T05:27:24.587Z,988.1
2023-01-09T05:28:24.591Z,988.2
2023-01-09T05:29:24.603Z,988.2
2023-01-09T05:30:24.603Z,988.2
2023-01-09T05:31:24.763Z,988.2
2023-01-09T05:32:24.618Z,988.2
2023-01-09T05:33:24.662Z,988.2
2023-01-09T05:34:24.635Z,988.2
2023-01-09T05:35:24.649Z,988.2
2023-01-09T05:36:24.651Z,988.3
2023-01-09T05:37:24.666Z,988.2
2023-01-09T05:38:24.697Z,988.2
2023-01-09T05:39:24.672Z,988.2
2023-01-09T05:40:35.276Z,988.2
2023-01-09T05:41:24.692Z,988.2
2023-01-09T05:42:24.693Z,988.2
2023-01-09T05:43:24.696Z,988.1
2023-01-09T05:44:24.700Z,988.2
2023-01-09T05:45:24.826Z,988.2
2023-01-09T05:46:24.723Z,988.2
2023-01-09T05:47:24.721Z,988.2
2023-01-09T05:48:24.728Z,988.2
2023-01-09T05:49:24.738Z,988.2
2023-01-09T05:50:24.759Z,988.2
2023-01-09T05:51:24.746Z,988.2
2023-01-09T05:52:24.780Z,988.2
2023-01-09T05:53:24.764Z,988.2
2023-01-09T05:54:24.796Z,988.2
2023-01-09T05:55:24.789Z,988.2
2023-01-09T05:56:24.800Z,988.3
2023-01-09T05:57:24.805Z,988.2
2023-01-09T05:58:24.798Z,988.3
2023-01-09T05:59:24.815Z,988.3
2023-01-09T06:00:24.828Z,988.2
2023-01-09T06:01:24.957Z,988.3
2023-01-09T06:02:25.118Z,988.3
2023-01-09T06:03:24.845Z,988.2
2023-01-09T06:04:24.863Z,988.3
2023-01-09T06:05:24.858Z,988.2
2023-01-09T06:06:24.866Z,988.2
2023-01-09T06:07:24.863Z,988.3
2023-01-09T06:08:24.873Z,988.2
2023-01-09T06:09:24.878Z,988.2
2023-01-09T06:10:24.901Z,988.2
2023-01-09T06:11:24.903Z,988.3
2023-01-09T06:12:24.916Z,988.2
2023-01-09T06:13:24.903Z,988.2
2023-01-09T06:14:24.913Z,988.2
2023-01-09T06:15:24.911Z,988.2
2023-01-09T06:16:25.119Z,988.2
2023-01-09T06:17:24.922Z,988.2
2023-01-09T06:18:24.943Z,988.3
2023-01-09T06:19:24.947Z,988.3
2023-01-09T06:20:24.950Z,988.3
2023-01-09T06:21:24.975Z,988.3
2023-01-09T06:22:24.971Z,988.4
2023-01-09T06:23:24.961Z,988.4
2023-01-09T06:24:24.984Z,988.4
2023-01-09T06:25:24.989Z,988.4
2023-01-09T06:26:24.999Z,988.4
2023-01-09T06:27:24.990Z,988.5
2023-01-09T06:28:25.007Z,988.5
2023-01-09T06:29:25.011Z,988.5
2023-01-09T06:30:25.015Z,988.5
2023-01-09T06:31:25.198Z,988.5
2023-01-09T06:32:25.027Z,988.5
2023-01-09T06:33:25.043Z,988.5
2023-01-09T06:34:25.061Z,988.5
2023-01-09T06:35:25.047Z,988.5
2023-01-09T06:36:25.048Z,988.5
2023-01-09T06:37:25.055Z,988.5
2023-01-09T06:38:25.060Z,988.5
2023-01-09T06:39:25.076Z,988.5
2023-01-09T06:40:25.081Z,988.6
2023-01-09T06:41:25.101Z,988.6
2023-01-09T06:42:25.097Z,988.6
2023-01-09T06:43:25.095Z,988.6
2023-01-09T06:44:25.110Z,988.6
2023-01-09T06:45:25.116Z,988.6
2023-01-09T06:46:25.213Z,988.7
2023-01-09T06:47:25.139Z,988.6
2023-01-09T06:48:25.149Z,988.6
2023-01-09T06:49:25.153Z,988.7
2023-01-09T06:50:25.155Z,988.6
2023-01-09T06:51:25.163Z,988.6
2023-01-09T06:52:25.166Z,988.7
2023-01-09T06:53:25.170Z,988.6
2023-01-09T06:54:28.798Z,988.6
2023-01-09T06:55:25.188Z,988.7
2023-01-09T06:56:25.189Z,988.7
2023-01-09T06:57:25.208Z,988.7
2023-01-09T06:58:25.211Z,988.6
2023-01-09T06:59:25.222Z,988.7
2023-01-09T07:00:25.221Z,988.7
2023-01-09T07:01:25.372Z,988.7
2023-01-09T07:02:25.229Z,988.6
2023-01-09T07:03:25.234Z,988.6
2023-01-09T07:04:25.303Z,988.7
2023-01-09T07:05:25.248Z,988.7
2023-01-09T07:06:25.251Z,988.7
2023-01-09T07:07:25.276Z,988.7
2023-01-09T07:08:25.266Z,988.7
2023-01-09T07:09:25.272Z,988.7
2023-01-09T07:10:25.272Z,988.7
2023-01-09T07:11:25.285Z,988.7
2023-01-09T07:12:25.287Z,988.6
2023-01-09T07:13:25.294Z,988.7
2023-01-09T07:14:25.303Z,988.8
2023-01-09T07:15:25.300Z,988.7
2023-01-09T07:16:25.426Z,988.8
2023-01-09T07:17:25.321Z,988.8
2023-01-09T07:18:25.321Z,988.8
2023-01-09T07:19:25.325Z,988.8
2023-01-09T07:20:25.338Z,988.9
2023-01-09T07:21:25.360Z,988.9
2023-01-09T07:22:25.347Z,988.9
2023-01-09T07:23:25.367Z,988.9
2023-01-09T07:24:25.375Z,988.9
2023-01-09T07:25:25.380Z,988.8
2023-01-09T07:26:25.382Z,988.9
2023-01-09T07:27:25.393Z,988.9
2023-01-09T07:28:25.417Z,989.0
2023-01-09T07:29:25.417Z,989.0
2023-01-09T07:30:25.424Z,989.0
2023-01-09T07:31:25.552Z,989.0
2023-01-09T07:32:25.439Z,989.1
2023-01-09T07:33:25.456Z,989.0
2023-01-09T07:34:25.459Z,989.1
2023-01-09T07:35:25.464Z,989.1
2023-01-09T07:36:25.470Z,989.2
2023-01-09T07:37:25.480Z,989.2
2023-01-09T07:38:25.483Z,989.2
2023-01-09T07:39:25.493Z,989.1
2023-01-09T07:40:25.488Z,989.2
2023-01-09T07:41:25.505Z,989.2
2023-01-09T07:42:25.534Z,989.1
2023-01-09T07:43:25.514Z,989.2
2023-01-09T07:44:25.526Z,989.2
2023-01-09T07:45:25.529Z,989.2
2023-01-09T07:46:25.625Z,989.2
2023-01-09T07:47:25.543Z,989.3
2023-01-09T07:48:25.564Z,989.3
2023-01-09T07:49:27.069Z,989.3
2023-01-09T07:50:25.573Z,989.4
2023-01-09T07:51:25.566Z,989.3
2023-01-09T07:52:25.576Z,989.3
2023-01-09T07:53:25.581Z,989.4
2023-01-09T07:54:25.585Z,989.4
2023-01-09T07:55:25.593Z,989.4
2023-01-09T07:56:25.604Z,989.5
2023-01-09T07:57:25.608Z,989.5
2023-01-09T07:58:25.618Z,989.5
2023-01-09T07:59:25.613Z,989.5
2023-01-09T08:00:25.639Z,989.5
2023-01-09T08:01:25.832Z,989.5
2023-01-09T08:02:25.848Z,989.5
2023-01-09T08:03:25.660Z,989.5
2023-01-09T08:04:25.662Z,989.6
2023-01-09T08:05:25.658Z,989.5
2023-01-09T08:06:25.675Z,989.5
2023-01-09T08:07:25.697Z,989.5
2023-01-09T08:08:25.687Z,989.5
2023-01-09T08:09:25.694Z,989.5
2023-01-09T08:10:25.699Z,989.5
2023-01-09T08:11:25.715Z,989.6
2023-01-09T08:12:25.721Z,989.5
2023-01-09T08:13:25.723Z,989.6
2023-01-09T08:14:25.725Z,989.6
2023-01-09T08:15:25.743Z,989.6
2023-01-09T08:16:25.739Z,989.6
2023-01-09T08:17:26.732Z,989.5
2023-01-09T08:18:25.748Z,989.6
2023-01-09T08:19:25.873Z,989.6
2023-01-09T08:20:25.775Z,989.5
2023-01-09T08:21:25.766Z,989.6
2023-01-09T08:22:25.788Z,989.6
2023-01-09T08:23:25.784Z,989.6
2023-01-09T08:24:25.790Z,989.6
2023-01-09T08:25:25.818Z,989.6
2023-01-09T08:26:25.803Z,989.6
2023-01-09T08:27:25.825Z,989.6
2023-01-09T08:28:25.821Z,989.7
2023-01-09T08:29:25.824Z,989.7
2023-01-09T08:30:25.956Z,989.6
2023-01-09T08:31:26.033Z,989.7
2023-01-09T08:32:25.834Z,989.7
2023-01-09T08:33:25.849Z,989.7
2023-01-09T08:34:25.847Z,989.7
2023-01-09T08:35:25.866Z,989.7
2023-01-09T08:36:26.016Z,989.7
2023-01-09T08:37:25.870Z,989.8
2023-01-09T08:38:25.869Z,989.8
2023-01-09T08:39:25.879Z,989.8
2023-01-09T08:40:26.013Z,989.8
2023-01-09T08:41:25.898Z,989.8
2023-01-09T08:42:25.909Z,989.8
2023-01-09T08:43:25.913Z,989.8
2023-01-09T08:44:25.920Z,989.8
2023-01-09T08:45:25.951Z,989.8
2023-01-09T08:46:26.062Z,989.9
2023-01-09T08:47:25.944Z,989.9
2023-01-09T08:48:25.956Z,989.9
2023-01-09T08:49:25.947Z,989.9
2023-01-09T08:50:25.957Z,989.9
2023-01-09T08:51:25.969Z,989.9
2023-01-09T08:52:25.976Z,989.9
2023-01-09T08:53:25.988Z,989.9
2023-01-09T08:54:25.997Z,990.0
2023-01-09T08:55:26.016Z,990.0
2023-01-09T08:56:26.013Z,989.9
2023-01-09T08:57:26.013Z,990.0
2023-01-09T08:58:26.016Z,990.0
2023-01-09T08:59:26.048Z,990.0
2023-01-09T09:00:26.121Z,990.0
2023-01-09T09:01:26.161Z,990.0
2023-01-09T09:02:26.170Z,990.0
2023-01-09T09:03:26.044Z,990.0
2023-01-09T09:04:26.060Z,990.1
2023-01-09T09:05:26.088Z,990.0
2023-01-09T09:06:26.170Z,990.0
2023-01-09T09:07:26.076Z,990.1
2023-01-09T09:08:26.086Z,990.1
2023-01-09T09:09:26.088Z,990.1
2023-01-09T09:10:26.101Z,990.0
2023-01-09T09:11:26.103Z,990.2
2023-01-09T09:12:26.108Z,990.2
2023-01-09T09:13:26.113Z,990.2
2023-01-09T09:14:26.131Z,990.1
2023-01-09T09:15:26.126Z,990.2
2023-01-09T09:16:26.489Z,990.1
2023-01-09T09:17:26.141Z,990.2
2023-01-09T09:18:26.162Z,990.2
2023-01-09T09:19:26.169Z,990.2
2023-01-09T09:20:26.197Z,990.2
2023-01-09T09:21:26.164Z,990.3
2023-01-09T09:22:26.175Z,990.3
2023-01-09T09:23:26.188Z,990.3
2023-01-09T09:24:26.195Z,990.3
2023-01-09T09:25:26.199Z,990.3
2023-01-09T09:26:26.218Z,990.3
2023-01-09T09:27:26.227Z,990.3
2023-01-09T09:28:26.242Z,990.3
2023-01-09T09:29:26.226Z,990.3
2023-01-09T09:30:26.260Z,990.3
2023-01-09T09:31:26.384Z,990.3
2023-01-09T09:32:26.249Z,990.3
2023-01-09T09:33:26.239Z,990.3
2023-01-09T09:34:26.248Z,990.4
2023-01-09T09:35:26.255Z,990.3
2023-01-09T09:36:26.260Z,990.3
2023-01-09T09:37:26.262Z,990.4
2023-01-09T09:38:26.279Z,990.4
2023-01-09T09:39:26.283Z,990.3
2023-01-09T09:40:26.292Z,990.4
2023-01-09T09:41:26.296Z,990.3
2023-01-09T09:42:26.312Z,990.4
2023-01-09T09:43:26.309Z,990.4
2023-01-09T09:44:26.329Z,990.3
2023-01-09T09:45:26.325Z,990.5
2023-01-09T09:46:26.463Z,990.4
2023-01-09T09:47:26.336Z,990.6
2023-01-09T09:48:26.339Z,990.4
2023-01-09T09:49:26.353Z,990.3
2023-01-09T09:50:26.351Z,990.5
2023-01-09T09:51:26.357Z,990.4
2023-01-09T09:52:26.362Z,990.4
2023-01-09T09:53:26.393Z,990.5
2023-01-09T09:54:26.384Z,990.5
2023-01-09T09:55:26.394Z,990.5
2023-01-09T09:56:26.405Z,990.5
2023-01-09T09:57:26.405Z,990.5
2023-01-09T09:58:26.410Z,990.5
2023-01-09T09:59:27.209Z,990.5
2023-01-09T10:00:26.421Z,990.5
2023-01-09T10:01:26.429Z,990.5
2023-01-09T10:02:26.568Z,990.5
2023-01-09T10:03:34.634Z,990.6
2023-01-09T10:04:26.475Z,990.6
2023-01-09T10:05:26.461Z,990.6
2023-01-09T10:06:26.464Z,990.6
2023-01-09T10:07:26.465Z,990.6
2023-01-09T10:08:26.476Z,990.7
2023-01-09T10:09:26.504Z,990.7
2023-01-09T10:10:26.484Z,990.7
2023-01-09T10:11:26.497Z,990.8
2023-01-09T10:12:26.507Z,990.7
2023-01-09T10:13:26.506Z,990.8
2023-01-09T10:14:26.522Z,990.6
2023-01-09T10:15:26.525Z,990.8
2023-01-09T10:16:26.706Z,990.7
2023-01-09T10:17:26.533Z,990.8
2023-01-09T10:18:26.564Z,990.8
2023-01-09T10:19:26.546Z,990.7
2023-01-09T10:20:26.549Z,990.6
2023-01-09T10:21:26.568Z,990.7
2023-01-09T10:22:26.571Z,990.6
2023-01-09T10:23:26.627Z,990.7
2023-01-09T10:24:26.638Z,990.7
2023-01-09T10:25:26.606Z,990.7
2023-01-09T10:26:26.610Z,990.7
2023-01-09T10:27:26.776Z,990.7
2023-01-09T10:28:26.613Z,990.7
2023-01-09T10:29:26.625Z,990.7
2023-01-09T10:30:26.629Z,990.8
2023-01-09T10:31:26.691Z,990.8
2023-01-09T10:32:26.656Z,990.7
2023-01-09T10:33:26.665Z,990.8
2023-01-09T10:34:26.678Z,990.8
2023-01-09T10:35:42.868Z,990.8
2023-01-09T10:36:26.678Z,990.8
2023-01-09T10:37:26.679Z,990.8
2023-01-09T10:38:26.696Z,990.8
2023-01-09T10:39:26.706Z,990.8
2023-01-09T10:40:26.710Z,990.9
2023-01-09T10:41:26.754Z,990.9
2023-01-09T10:42:26.720Z,990.9
2023-01-09T10:43:26.725Z,990.9
2023-01-09T10:44:26.741Z,990.9
2023-01-09T10:45:26.752Z,990.9
2023-01-09T10:46:26.885Z,991.0
2023-01-09T10:47:26.761Z,990.9
2023-01-09T10:48:26.761Z,991.0
2023-01-09T10:49:26.767Z,990.9
2023-01-09T10:50:26.786Z,991.0
2023-01-09T10:51:26.779Z,991.0
2023-01-09T10:52:26.786Z,991.0
2023-01-09T10:53:26.806Z,991.1
2023-01-09T10:54:26.803Z,991.0
2023-01-09T10:55:26.810Z,991.0
2023-01-09T10:56:26.826Z,991.0
2023-01-09T10:57:26.831Z,990.9
2023-01-09T10:58:26.861Z,991.0
2023-01-09T10:59:26.863Z,991.0
2023-01-09T11:00:26.867Z,991.0
2023-01-09T11:01:26.911Z,991.0
2023-01-09T11:02:27.066Z,991.0
2023-01-09T11:03:26.918Z,991.0
2023-01-09T11:04:26.897Z,991.0
2023-01-09T11:05:28.217Z,991.1
2023-01-09T11:06:26.897Z,991.1
2023-01-09T11:07:26.929Z,991.1
2023-01-09T11:08:26.922Z,991.1
2023-01-09T11:09:26.936Z,991.1
2023-01-09T11:10:26.925Z,991.1
2023-01-09T11:11:26.931Z,991.0
2023-01-09T11:12:26.938Z,991.0
2023-01-09T11:13:26.993Z,991.0
2023-01-09T11:14:26.951Z,991.0
2023-01-09T11:15:26.955Z,991.0
2023-01-09T11:16:27.081Z,991.0
2023-01-09T11:17:26.994Z,991.1
2023-01-09T11:18:26.988Z,991.0
2023-01-09T11:19:26.996Z,991.0
2023-01-09T11:20:26.999Z,991.1
2023-01-09T11:21:27.038Z,991.0
2023-01-09T11:22:27.012Z,991.0
2023-01-09T11:23:27.038Z,991.1
2023-01-09T11:24:27.031Z,991.1
2023-01-09T11:25:27.037Z,991.1
2023-01-09T11:26:27.047Z,991.1
2023-01-09T11:27:27.056Z,991.1
2023-01-09T11:28:27.076Z,991.2
2023-01-09T11:29:27.212Z,991.1
2023-01-09T11:30:27.156Z,991.1
2023-01-09T11:31:27.166Z,991.2
2023-01-09T11:32:27.099Z,991.1
2023-01-09T11:33:27.129Z,991.1
2023-01-09T11:34:27.129Z,991.1
2023-01-09T11:35:27.156Z,991.2
2023-01-09T11:36:27.128Z,991.1
2023-01-09T11:37:27.135Z,991.1
2023-01-09T11:38:27.136Z,991.1
2023-01-09T11:39:27.138Z,991.0
2023-01-09T11:40:27.149Z,991.1
2023-01-09T11:41:27.156Z,991.1
2023-01-09T11:42:27.158Z,991.1
2023-01-09T11:43:27.161Z,991.1
2023-01-09T11:44:27.174Z,991.1
2023-01-09T11:45:27.182Z,991.1
2023-01-09T11:46:27.213Z,991.1
2023-01-09T11:47:27.186Z,991.1
2023-01-09T11:48:27.190Z,991.1
2023-01-09T11:49:27.197Z,991.1
2023-01-09T11:50:27.258Z,991.1
2023-01-09T11:51:27.242Z,991.0
2023-01-09T11:52:27.243Z,991.1
2023-01-09T11:53:27.232Z,991.1
2023-01-09T11:54:27.243Z,991.1
2023-01-09T11:55:42.103Z,991.0
2023-01-09T11:56:27.260Z,991.0
2023-01-09T11:57:27.287Z,991.1
2023-01-09T11:58:27.273Z,990.9
2023-01-09T11:59:27.288Z,991.0
2023-01-09T12:00:27.288Z,991.1
2023-01-09T12:01:27.314Z,991.1
2023-01-09T12:02:27.311Z,991.1
2023-01-09T12:03:27.451Z,991.1
2023-01-09T12:04:27.327Z,991.1
2023-01-09T12:05:27.329Z,991.1
2023-01-09T12:06:27.342Z,991.1
2023-01-09T12:07:27.351Z,991.1
2023-01-09T12:08:27.352Z,991.2
2023-01-09T12:09:27.401Z,991.2
2023-01-09T12:10:27.367Z,991.1
2023-01-09T12:11:27.381Z,991.2
2023-01-09T12:12:27.393Z,991.2
2023-01-09T12:13:27.399Z,991.1
2023-01-09T12:14:27.403Z,991.2
2023-01-09T12:15:27.415Z,991.1
2023-01-09T12:16:27.597Z,991.2
2023-01-09T12:17:27.425Z,991.2
2023-01-09T12:18:27.451Z,991.2
2023-01-09T12:19:27.454Z,991.1
2023-01-09T12:20:27.456Z,991.2
2023-01-09T12:21:27.467Z,991.1
2023-01-09T12:22:27.480Z,991.2
2023-01-09T12:23:27.476Z,991.2
2023-01-09T12:24:27.530Z,991.2
2023-01-09T12:25:27.503Z,991.2
2023-01-09T12:26:27.504Z,991.2
2023-01-09T12:27:27.523Z,991.2
2023-01-09T12:28:27.523Z,991.2
2023-01-09T12:29:27.521Z,991.2
2023-01-09T12:30:27.541Z,991.2
2023-01-09T12:31:27.634Z,991.3
2023-01-09T12:32:27.545Z,991.3
2023-01-09T12:33:27.539Z,991.2
2023-01-09T12:34:27.549Z,991.3
2023-01-09T12:35:27.573Z,991.2
2023-01-09T12:36:27.580Z,991.2
2023-01-09T12:37:27.580Z,991.3
2023-01-09T12:38:27.586Z,991.3
2023-01-09T12:39:27.614Z,991.3
2023-01-09T12:40:27.610Z,991.2
2023-01-09T12:41:27.632Z,991.3
2023-01-09T12:42:27.612Z,991.2
2023-01-09T12:43:27.622Z,991.3
2023-01-09T12:44:36.492Z,991.3
2023-01-09T12:45:27.713Z,991.3
2023-01-09T12:46:27.657Z,991.2
2023-01-09T12:47:27.648Z,991.1
2023-01-09T12:48:27.647Z,991.2
2023-01-09T12:49:27.680Z,991.2
2023-01-09T12:50:27.678Z,991.2
2023-01-09T12:51:27.680Z,991.3
2023-01-09T12:52:27.935Z,991.2
2023-01-09T12:53:27.690Z,991.2
2023-01-09T12:54:27.694Z,991.2
2023-01-09T12:55:27.722Z,991.2
2023-01-09T12:56:27.717Z,991.1
2023-01-09T12:57:27.731Z,991.3
2023-01-09T12:58:27.732Z,991.2
2023-01-09T12:59:27.765Z,991.2
2023-01-09T13:00:27.751Z,991.2
2023-01-09T13:01:27.876Z,991.2
2023-01-09T13:02:28.031Z,991.2
2023-01-09T13:03:27.765Z,991.2
2023-01-09T13:04:27.785Z,991.3
2023-01-09T13:05:27.794Z,991.3
2023-01-09T13:06:27.795Z,991.2
2023-01-09T13:07:27.805Z,991.3
2023-01-09T13:08:27.805Z,991.2
2023-01-09T13:09:27.819Z,991.2